Westby, Wisconsin
Current Conditions -  °F | °C
As of 3:15 PM on Saturday 22 Nov 2014 (Local Time) from KY51 Reporting Station
Overcast Overcast  
Wind Chill: 32°   Ceiling: 300
Heat Index: 38°   Visibility: 0mi
Dew Point: 38°   Wind: 8mph
Humidity: 100%   Direction: 200°SSW
Pressure: 29.73"   Gusts: NA
Location:  43.66°N, 90.85°W
Report Text: KY51 222115Z AUTO 20007KT M1/4SM OVC003 03/03 A2973 RMK AO1 T00320032
Loading
Personal Weather Stations






























Interactive Weather Map New forecast layout! Learn more

10-Day Weather Forecast

Advertisements
Track Severe Weather on mobile